Time;durP1;ratioP1;P1;durP2;ratioP2;P2;SDS_P1;SDS_P2;PMS_P1;PMS_P2;Temp;Humidity;BMP_temperature;BMP_pressure;BME280_temperature;BME280_humidity;BME280_pressure;Samples;Min_cycle;Max_cycle;Signal;HPM_P1;HPM_P2
2022/12/11 00:00:19;;;;;;;45.95;26.90;;;-0.80;99.90;;;;;;5038409;28;20346;-81
2022/12/11 00:02:45;;;;;;;43.85;25.65;;;-0.70;99.90;;;;;;5039090;28;20096;-81
2022/12/11 00:05:11;;;;;;;43.47;25.08;;;-0.70;99.90;;;;;;5037258;28;20021;-81
2022/12/11 00:07:36;;;;;;;44.13;25.85;;;-0.70;99.90;;;;;;5038488;28;20025;-81
2022/12/11 00:10:03;;;;;;;44.40;25.17;;;-0.70;99.90;;;;;;5038292;28;20021;-81
2022/12/11 00:12:29;;;;;;;42.83;24.63;;;-0.70;99.90;;;;;;5041851;28;20037;-81
2022/12/11 00:14:55;;;;;;;40.60;24.05;;;-0.60;99.90;;;;;;5040578;28;20458;-81
2022/12/11 00:17:21;;;;;;;39.35;23.85;;;-0.60;99.90;;;;;;5037256;28;20040;-81
2022/12/11 00:19:46;;;;;;;40.58;24.08;;;-0.60;99.90;;;;;;5040079;28;20030;-81
2022/12/11 00:22:12;;;;;;;40.63;23.35;;;-0.60;99.90;;;;;;5036346;28;20037;-81
2022/12/11 00:24:37;;;;;;;36.08;21.55;;;-0.60;99.90;;;;;;5034796;28;20021;-81
2022/12/11 00:27:03;;;;;;;42.33;25.42;;;-0.70;99.90;;;;;;5037111;28;20083;-81
2022/12/11 00:29:29;;;;;;;45.20;26.98;;;-0.70;99.90;;;;;;5037514;28;20432;-81
2022/12/11 00:31:54;;;;;;;41.38;25.17;;;-0.70;99.90;;;;;;5038224;28;20031;-81
2022/12/11 00:34:20;;;;;;;44.05;25.65;;;-0.80;99.90;;;;;;5038914;28;20454;-80
2022/12/11 00:36:45;;;;;;;43.60;25.48;;;-0.80;99.90;;;;;;5036494;28;20434;-81
2022/12/11 00:39:11;;;;;;;44.65;25.73;;;-0.70;99.90;;;;;;5031970;28;20017;-81
2022/12/11 00:41:37;;;;;;;40.60;25.02;;;-0.80;99.90;;;;;;5036944;28;20333;-80
2022/12/11 00:44:03;;;;;;;44.50;26.30;;;-0.70;99.90;;;;;;5037987;28;20538;-81
2022/12/11 00:46:28;;;;;;;42.15;26.40;;;-0.80;99.90;;;;;;5038927;28;20688;-81
2022/12/11 00:48:54;;;;;;;38.78;23.77;;;-0.70;99.90;;;;;;5040447;28;20029;-81
2022/12/11 00:51:19;;;;;;;40.40;25.23;;;-0.70;99.90;;;;;;5037814;28;20022;-81
2022/12/11 00:53:45;;;;;;;47.75;26.20;;;-0.80;99.90;;;;;;5042258;28;20060;-81
2022/12/11 00:56:14;;;;;;;50.83;29.30;;;-0.80;99.90;;;;;;5036307;28;20025;-81
2022/12/11 00:58:40;;;;;;;48.22;28.10;;;-0.80;99.90;;;;;;5040548;28;20028;-81
2022/12/11 01:01:15;;;;;;;46.05;25.92;;;-0.90;99.90;;;;;;5045473;28;20049;-81
2022/12/11 01:03:42;;;;;;;47.05;28.17;;;-0.90;99.90;;;;;;5039390;28;20052;-80
2022/12/11 01:06:13;;;;;;;49.40;29.08;;;-0.90;99.90;;;;;;5033561;28;20025;-81
2022/12/11 01:08:38;;;;;;;47.30;27.25;;;-0.90;99.90;;;;;;5032807;28;20021;-81
2022/12/11 01:11:08;;;;;;;46.72;27.63;;;-0.90;99.90;;;;;;5038891;28;20025;-81
2022/12/11 01:13:34;;;;;;;44.65;26.30;;;-0.90;99.90;;;;;;5043126;28;20021;-81
2022/12/11 01:16:09;;;;;;;44.95;26.42;;;-1.00;99.90;;;;;;5041052;28;20078;-81
2022/12/11 01:18:35;;;;;;;50.70;29.07;;;-0.90;99.90;;;;;;5043168;28;20029;-81
2022/12/11 01:21:05;;;;;;;48.88;27.33;;;-1.00;99.90;;;;;;5044231;28;20675;-81
2022/12/11 01:23:32;;;;;;;49.33;29.27;;;-0.90;99.90;;;;;;5040264;28;20025;-82
2022/12/11 01:26:08;;;;;;;41.17;25.75;;;-1.00;99.90;;;;;;5040036;28;20363;-81
2022/12/11 01:28:34;;;;;;;48.72;28.98;;;-0.90;99.90;;;;;;5042538;28;20041;-81
2022/12/11 01:31:01;;;;;;;58.67;31.90;;;-0.90;99.90;;;;;;5042141;28;20055;-81
2022/12/11 01:33:27;;;;;;;45.58;26.83;;;-0.90;99.90;;;;;;5038841;28;20045;-81
2022/12/11 01:35:53;;;;;;;45.03;26.50;;;-1.00;99.90;;;;;;5041874;28;20039;-82
2022/12/11 01:38:19;;;;;;;50.40;28.30;;;-1.00;99.90;;;;;;5039547;28;20025;-81
2022/12/11 01:40:50;;;;;;;44.97;26.67;;;-1.00;99.90;;;;;;5043413;28;20369;-81
2022/12/11 01:43:16;;;;;;;46.83;28.27;;;-1.00;99.90;;;;;;5042352;28;20028;-81
2022/12/11 01:45:44;;;;;;;45.63;25.60;;;-1.00;99.90;;;;;;5039550;28;20493;-81
2022/12/11 01:48:20;;;;;;;46.45;26.55;;;-1.00;99.90;;;;;;5039718;28;20021;-82
2022/12/11 01:51:01;;;;;;;42.40;24.00;;;-1.00;99.90;;;;;;5033360;28;20029;-82
2022/12/11 01:53:44;;;;;;;46.85;27.13;;;-0.90;99.90;;;;;;5044260;28;20518;-81
2022/12/11 01:56:10;;;;;;;41.88;24.83;;;-0.90;99.90;;;;;;5041648;28;20021;-81
2022/12/11 01:58:47;;;;;;;45.80;25.42;;;-0.90;99.90;;;;;;5037934;28;20025;-81
2022/12/11 02:01:21;;;;;;;39.17;24.98;;;-0.90;99.90;;;;;;5040612;28;20452;-81
2022/12/11 02:03:47;;;;;;;40.90;25.20;;;-0.90;99.90;;;;;;5043769;28;20017;-81
2022/12/11 02:06:37;;;;;;;43.00;25.02;;;-0.80;99.90;;;;;;5042587;28;20033;-81
2022/12/11 02:09:08;;;;;;;42.70;25.17;;;-0.80;99.90;;;;;;5040012;28;20116;-81
2022/12/11 02:11:52;;;;;;;41.53;24.77;;;-0.80;99.90;;;;;;5036473;28;20017;-81
2022/12/11 02:14:30;;;;;;;39.10;24.50;;;-0.80;99.90;;;;;;5042264;28;20388;-81
2022/12/11 02:17:17;;;;;;;38.40;21.38;;;-0.80;99.90;;;;;;5042396;28;20022;-81
2022/12/11 02:19:57;;;;;;;41.63;24.92;;;-0.80;99.90;;;;;;5035672;28;20136;-82
2022/12/11 02:22:44;;;;;;;46.65;26.02;;;-0.80;99.90;;;;;;5046387;28;20043;-81
2022/12/11 02:25:35;;;;;;;46.85;25.95;;;-0.90;99.90;;;;;;5043516;28;20020;-81
2022/12/11 02:28:16;;;;;;;49.13;26.67;;;-0.90;99.90;;;;;;5038662;28;20028;-82
2022/12/11 02:30:45;;;;;;;44.50;25.02;;;-0.90;99.90;;;;;;5038612;28;20454;-82
2022/12/11 02:33:14;;;;;;;46.55;25.75;;;-0.90;99.90;;;;;;5045240;28;20088;-82
2022/12/11 02:35:44;;;;;;;45.72;26.00;;;-0.80;99.90;;;;;;5046299;28;20033;-81
2022/12/11 02:38:26;;;;;;;45.03;24.70;;;-0.80;99.90;;;;;;5046168;28;20025;-82
2022/12/11 02:40:54;;;;;;;45.03;24.80;;;-0.80;99.90;;;;;;5045583;28;20048;-81
2022/12/11 02:43:22;;;;;;;45.08;24.55;;;-0.80;99.90;;;;;;5049006;28;20484;-81
2022/12/11 02:45:49;;;;;;;42.90;25.05;;;-0.80;99.90;;;;;;5050473;28;20021;-82
2022/12/11 02:48:16;;;;;;;42.00;24.50;;;-0.80;99.90;;;;;;5039858;28;20018;-81
2022/12/11 02:50:50;;;;;;;41.80;24.27;;;-0.80;99.90;;;;;;5042494;28;20549;-81
2022/12/11 02:53:19;;;;;;;43.38;24.77;;;-0.70;99.90;;;;;;5048401;28;20036;-81
2022/12/11 02:55:48;;;;;;;42.78;23.88;;;-0.80;99.90;;;;;;5042143;28;20597;-81
2022/12/11 02:58:20;;;;;;;42.72;25.60;;;-0.80;99.90;;;;;;5044613;28;20433;-82
2022/12/11 03:00:46;;;;;;;42.25;24.92;;;-0.70;99.90;;;;;;5048463;28;20449;-82
2022/12/11 03:03:12;;;;;;;43.22;24.98;;;-0.80;99.90;;;;;;5050046;28;20032;-82
2022/12/11 03:05:39;;;;;;;39.10;23.83;;;-0.80;99.90;;;;;;5050988;28;20042;-82
2022/12/11 03:08:05;;;;;;;40.60;24.70;;;-0.80;99.90;;;;;;5051160;28;20033;-81
2022/12/11 03:10:30;;;;;;;45.67;25.95;;;-0.70;99.90;;;;;;5045692;28;20029;-82
2022/12/11 03:12:58;;;;;;;39.17;23.83;;;-0.80;99.90;;;;;;5045379;28;20033;-82
2022/12/11 03:15:45;;;;;;;43.47;25.08;;;-0.80;99.90;;;;;;5043183;28;20030;-81
2022/12/11 03:18:20;;;;;;;41.40;23.88;;;-0.80;99.90;;;;;;5045025;28;20033;-81
2022/12/11 03:21:23;;;;;;;45.95;25.33;;;-0.80;99.90;;;;;;5045809;28;20362;-81
2022/12/11 03:23:58;;;;;;;43.97;24.40;;;-0.80;99.90;;;;;;5046226;28;20040;-81
2022/12/11 03:26:23;;;;;;;41.70;24.60;;;-0.80;99.90;;;;;;5045415;28;20381;-82
2022/12/11 03:28:58;;;;;;;46.08;24.88;;;-0.70;99.90;;;;;;5038261;28;20029;-81
2022/12/11 03:31:39;;;;;;;45.58;25.63;;;-0.80;99.90;;;;;;5037201;28;20029;-81
2022/12/11 03:34:18;;;;;;;43.60;25.63;;;-0.80;99.90;;;;;;5041153;28;20447;-81
2022/12/11 03:36:46;;;;;;;44.03;24.75;;;-0.80;99.90;;;;;;5038686;28;20404;-80
2022/12/11 03:39:17;;;;;;;41.72;24.20;;;-0.80;99.90;;;;;;5039947;28;20424;-81
2022/12/11 03:41:45;;;;;;;40.95;24.25;;;-0.80;99.90;;;;;;5034202;28;20078;-81
2022/12/11 03:44:11;;;;;;;45.33;25.33;;;-0.80;99.90;;;;;;5040798;28;20091;-81
2022/12/11 03:46:39;;;;;;;47.20;25.92;;;-0.80;99.90;;;;;;5040369;28;20554;-81
2022/12/11 03:49:15;;;;;;;47.03;25.30;;;-0.80;99.90;;;;;;5041462;28;20028;-81
2022/12/11 03:51:41;;;;;;;41.65;25.55;;;-0.90;99.90;;;;;;5038559;28;20020;-81
2022/12/11 03:54:08;;;;;;;39.45;23.05;;;-0.90;99.90;;;;;;5035472;28;20041;-81
2022/12/11 03:56:37;;;;;;;45.38;24.33;;;-1.00;99.90;;;;;;5038017;28;20072;-81
2022/12/11 03:59:02;;;;;;;41.88;24.13;;;-0.90;99.90;;;;;;5043714;28;20074;-82
2022/12/11 04:01:29;;;;;;;46.67;27.95;;;-0.90;99.90;;;;;;5038639;28;20026;-82
2022/12/11 04:03:55;;;;;;;43.88;25.60;;;-1.00;99.90;;;;;;5038884;28;20021;-81
2022/12/11 04:06:20;;;;;;;39.72;24.55;;;-1.00;99.90;;;;;;5041046;28;20021;-81
2022/12/11 04:08:46;;;;;;;41.60;24.40;;;-1.00;99.90;;;;;;5041600;28;20069;-82
2022/12/11 04:16:40;;;;;;;39.25;23.50;;;-1.00;99.90;;;;;;5040505;28;20032;-81
2022/12/11 04:24:34;;;;;;;41.30;23.25;;;-1.10;99.90;;;;;;5034553;28;20031;-82
2022/12/11 04:27:00;;;;;;;43.20;23.63;;;-1.00;99.90;;;;;;5037010;28;20104;-82
2022/12/11 04:29:25;;;;;;;44.53;25.00;;;-1.00;99.90;;;;;;5039682;28;20056;-81
2022/12/11 04:31:51;;;;;;;40.53;24.05;;;-1.10;99.90;;;;;;5031768;28;20420;-82
2022/12/11 04:34:16;;;;;;;43.20;25.83;;;-1.10;99.90;;;;;;5033551;28;20068;-82
2022/12/11 04:36:45;;;;;;;47.30;26.25;;;-1.10;99.90;;;;;;5036671;28;20394;-82
2022/12/11 04:39:10;;;;;;;42.80;24.00;;;-1.10;99.90;;;;;;5032064;28;20416;-82
2022/12/11 04:41:37;;;;;;;47.15;25.02;;;-1.10;99.90;;;;;;5038544;28;20108;-82
2022/12/11 04:44:04;;;;;;;38.65;23.08;;;-1.10;99.90;;;;;;5041907;28;20112;-82
2022/12/11 04:46:30;;;;;;;45.75;24.60;;;-1.10;99.90;;;;;;5039934;28;20420;-81
2022/12/11 04:48:56;;;;;;;47.75;26.27;;;-1.20;99.90;;;;;;5035491;28;20288;-82
2022/12/11 04:51:22;;;;;;;47.28;26.42;;;-1.10;99.90;;;;;;5040492;28;20025;-82
2022/12/11 04:53:50;;;;;;;46.55;27.60;;;-1.20;99.90;;;;;;5043654;28;20036;-81
2022/12/11 04:56:16;;;;;;;52.75;28.17;;;-1.20;99.90;;;;;;5040949;28;20021;-82
2022/12/11 04:58:43;;;;;;;49.10;28.27;;;-1.20;99.90;;;;;;5035078;28;20032;-82
2022/12/11 05:01:14;;;;;;;47.15;26.10;;;-1.30;99.90;;;;;;5038509;28;20045;-82
2022/12/11 05:03:42;;;;;;;48.85;27.90;;;-1.30;99.90;;;;;;5038239;28;20022;-82
2022/12/11 05:06:09;;;;;;;51.40;28.17;;;-1.30;99.90;;;;;;5040558;28;20021;-82
2022/12/11 05:08:36;;;;;;;51.90;28.73;;;-1.40;99.90;;;;;;5035525;28;20029;-82
2022/12/11 05:11:04;;;;;;;54.30;28.35;;;-1.40;99.90;;;;;;5040557;28;20021;-82
2022/12/11 05:13:30;;;;;;;49.08;27.42;;;-1.40;99.90;;;;;;5034927;28;20420;-81
2022/12/11 05:15:56;;;;;;;53.72;28.88;;;-1.40;99.90;;;;;;5039049;28;20025;-82
2022/12/11 05:18:22;;;;;;;49.25;26.90;;;-1.40;99.90;;;;;;5039910;28;20077;-81
2022/12/11 05:21:02;;;;;;;53.03;28.95;;;-1.40;99.90;;;;;;5043931;28;20135;-82
2022/12/11 05:23:28;;;;;;;50.03;28.45;;;-1.40;99.90;;;;;;5033041;28;20370;-82
2022/12/11 05:25:56;;;;;;;48.08;28.08;;;-1.50;99.90;;;;;;5037841;28;20065;-81
2022/12/11 05:28:23;;;;;;;50.88;27.63;;;-1.50;99.90;;;;;;5036255;28;20055;-82
2022/12/11 05:31:03;;;;;;;50.00;28.13;;;-1.50;99.90;;;;;;5036386;28;20416;-82
2022/12/11 05:33:29;;;;;;;49.83;27.25;;;-1.50;99.90;;;;;;5038449;28;20061;-82
2022/12/11 05:35:55;;;;;;;52.05;28.60;;;-1.50;99.90;;;;;;5038552;28;20040;-82
2022/12/11 05:38:21;;;;;;;52.00;28.73;;;-1.50;99.90;;;;;;5038062;28;20078;-82
2022/12/11 05:41:02;;;;;;;57.50;30.02;;;-1.50;99.90;;;;;;5035898;28;20017;-82
2022/12/11 05:43:31;;;;;;;44.88;25.83;;;-1.50;99.90;;;;;;5040629;28;20408;-82
2022/12/11 05:46:10;;;;;;;50.20;27.27;;;-1.50;99.90;;;;;;5041278;28;20244;-82
2022/12/11 05:48:36;;;;;;;39.97;22.70;;;-1.50;99.90;;;;;;5041771;28;20021;-82
2022/12/11 05:51:02;;;;;;;46.55;25.45;;;-1.50;99.90;;;;;;5042939;28;20025;-82
2022/12/11 05:53:29;;;;;;;41.38;23.90;;;-1.50;99.90;;;;;;5041696;28;20041;-82
2022/12/11 05:56:02;;;;;;;45.17;23.23;;;-1.40;99.90;;;;;;5042123;28;20044;-82
2022/12/11 05:58:28;;;;;;;42.75;23.50;;;-1.40;99.90;;;;;;5037195;28;20395;-82
2022/12/11 06:00:54;;;;;;;43.22;23.15;;;-1.40;99.90;;;;;;5039170;28;20483;-82
2022/12/11 06:03:19;;;;;;;38.92;22.45;;;-1.30;99.90;;;;;;5041966;28;20112;-82
2022/12/11 06:05:45;;;;;;;44.67;24.88;;;-1.40;99.90;;;;;;5046287;28;20017;-82
2022/12/11 06:08:10;;;;;;;39.75;23.80;;;-1.40;99.90;;;;;;5039741;28;20045;-82
2022/12/11 06:10:45;;;;;;;43.00;23.98;;;-1.30;99.90;;;;;;5037957;28;20042;-81
2022/12/11 06:13:11;;;;;;;42.45;24.52;;;-1.30;99.90;;;;;;5032726;28;20470;-82
2022/12/11 06:15:37;;;;;;;47.25;26.33;;;-1.40;99.90;;;;;;5037872;28;20081;-82
2022/12/11 06:18:02;;;;;;;51.10;26.77;;;-1.30;99.90;;;;;;5042692;28;20028;-83
2022/12/11 06:20:32;;;;;;;50.08;25.92;;;-1.40;99.90;;;;;;5043192;28;20025;-81
2022/12/11 06:22:59;;;;;;;48.33;26.90;;;-1.40;99.90;;;;;;5038140;28;20036;-82
2022/12/11 06:25:24;;;;;;;49.67;26.15;;;-1.40;99.90;;;;;;5032658;28;20363;-82
2022/12/11 06:27:53;;;;;;;49.42;27.83;;;-1.40;99.90;;;;;;5039965;28;20032;-82
2022/12/11 06:30:18;;;;;;;52.53;28.73;;;-1.50;99.90;;;;;;5042345;28;20025;-82
2022/12/11 06:32:44;;;;;;;52.42;28.23;;;-1.50;99.90;;;;;;5043509;28;20028;-82
2022/12/11 06:35:10;;;;;;;45.72;25.90;;;-1.40;99.90;;;;;;5043288;28;20041;-82
2022/12/11 06:37:36;;;;;;;47.03;26.02;;;-1.50;99.90;;;;;;5042401;28;20044;-82
2022/12/11 06:40:07;;;;;;;51.20;27.98;;;-1.50;99.90;;;;;;5038352;28;20028;-81
2022/12/11 06:42:33;;;;;;;49.78;28.73;;;-1.50;99.90;;;;;;5038520;28;20402;-82
2022/12/11 06:44:59;;;;;;;51.70;27.45;;;-1.50;99.90;;;;;;5045079;28;20031;-83
2022/12/11 06:47:27;;;;;;;51.42;25.40;;;-1.60;99.90;;;;;;5042111;28;20373;-81
2022/12/11 06:49:53;;;;;;;51.10;28.48;;;-1.60;99.90;;;;;;5044392;28;20029;-82
2022/12/11 06:52:20;;;;;;;47.05;26.10;;;-1.60;99.90;;;;;;5035201;28;20035;-82
2022/12/11 06:54:46;;;;;;;48.28;27.70;;;-1.60;99.90;;;;;;5032701;28;20030;-82
2022/12/11 06:57:12;;;;;;;46.58;24.92;;;-1.60;99.90;;;;;;5041694;28;20024;-81
2022/12/11 06:59:38;;;;;;;50.92;27.33;;;-1.60;99.90;;;;;;5043027;28;20433;-82
2022/12/11 07:02:03;;;;;;;53.17;27.65;;;-1.60;99.90;;;;;;5041081;28;20078;-82
2022/12/11 07:04:30;;;;;;;49.30;27.23;;;-1.60;99.90;;;;;;5029582;28;20119;-82
2022/12/11 07:06:56;;;;;;;45.80;25.75;;;-1.50;99.90;;;;;;5037296;28;20049;-82
2022/12/11 07:09:22;;;;;;;52.08;27.73;;;-1.50;99.90;;;;;;5033210;28;20048;-82
2022/12/11 07:11:51;;;;;;;51.58;28.63;;;-1.50;99.90;;;;;;5033363;28;20554;-82
2022/12/11 07:14:17;;;;;;;54.97;29.65;;;-1.50;99.90;;;;;;5037997;28;20032;-83
2022/12/11 07:16:43;;;;;;;57.80;29.15;;;-1.50;99.90;;;;;;5040937;28;20545;-82
2022/12/11 07:19:08;;;;;;;50.15;25.23;;;-1.50;99.90;;;;;;5039517;28;20100;-82
2022/12/11 07:21:34;;;;;;;52.22;25.23;;;-1.50;99.90;;;;;;5040314;28;20450;-82
2022/12/11 07:24:00;;;;;;;46.47;22.65;;;-1.50;99.90;;;;;;5041780;28;20108;-82
2022/12/11 07:26:26;;;;;;;50.88;23.23;;;-1.50;99.90;;;;;;5037007;28;20040;-82
2022/12/11 07:28:52;;;;;;;45.00;24.10;;;-1.40;99.90;;;;;;5038462;28;20016;-82
2022/12/11 07:31:21;;;;;;;46.53;22.50;;;-1.50;99.90;;;;;;5039078;28;20048;-83
2022/12/11 07:33:55;;;;;;;49.58;23.80;;;-1.50;99.90;;;;;;5041819;28;20041;-81
2022/12/11 07:36:22;;;;;;;42.15;21.45;;;-1.50;99.90;;;;;;5039576;28;20017;-82
2022/12/11 07:38:48;;;;;;;48.15;23.33;;;-1.50;99.90;;;;;;5038965;28;20033;-82
2022/12/11 07:41:14;;;;;;;39.13;21.05;;;-1.40;99.90;;;;;;5041365;28;20082;-83
2022/12/11 07:43:42;;;;;;;38.75;20.42;;;-1.40;99.90;;;;;;5034545;28;20017;-82
2022/12/11 07:46:14;;;;;;;44.30;22.75;;;-1.40;99.90;;;;;;5031794;28;20033;-82
2022/12/11 07:48:41;;;;;;;47.20;21.60;;;-1.40;99.90;;;;;;5040609;28;20382;-82
2022/12/11 07:51:25;;;;;;;41.13;21.52;;;-1.40;99.90;;;;;;5034778;28;20014;-83
2022/12/11 07:53:51;;;;;;;41.65;21.30;;;-1.40;99.90;;;;;;5037404;28;20068;-82
2022/12/11 07:56:18;;;;;;;41.95;22.42;;;-1.40;99.90;;;;;;5042256;28;20021;-81
2022/12/11 07:58:44;;;;;;;42.65;22.25;;;-1.40;99.90;;;;;;5033323;28;20440;-82
2022/12/11 08:01:16;;;;;;;48.33;23.42;;;-1.30;99.90;;;;;;5035873;28;20084;-83
2022/12/11 08:03:45;;;;;;;43.85;23.00;;;-1.30;99.90;;;;;;5034415;28;20493;-81
2022/12/11 08:06:11;;;;;;;52.08;25.30;;;-1.30;99.90;;;;;;5039132;28;20041;-83
2022/12/11 08:08:38;;;;;;;43.33;22.45;;;-1.40;99.90;;;;;;5036110;28;20029;-82
2022/12/11 08:11:06;;;;;;;41.72;21.30;;;-1.50;99.90;;;;;;5038257;28;20029;-83
2022/12/11 08:13:32;;;;;;;41.75;20.95;;;-1.50;99.90;;;;;;5038919;28;20863;-83
2022/12/11 08:15:57;;;;;;;42.40;21.92;;;-1.40;99.90;;;;;;5036675;28;20048;-82
2022/12/11 08:18:24;;;;;;;39.38;20.35;;;-1.40;99.90;;;;;;5039757;28;20107;-82
2022/12/11 08:20:49;;;;;;;39.42;21.05;;;-1.40;99.90;;;;;;5036395;28;20363;-83
2022/12/11 08:23:15;;;;;;;43.38;21.23;;;-1.40;99.90;;;;;;5040435;28;20078;-83
2022/12/11 08:25:41;;;;;;;41.88;19.80;;;-1.40;99.90;;;;;;5032963;28;20033;-83
2022/12/11 08:28:06;;;;;;;44.67;22.58;;;-1.30;99.90;;;;;;5039428;28;20029;-83
2022/12/11 08:30:32;;;;;;;42.00;22.88;;;-1.30;99.90;;;;;;5038843;28;20029;-83
2022/12/11 08:32:58;;;;;;;42.42;22.85;;;-1.30;99.90;;;;;;5036029;28;20566;-82
2022/12/11 08:35:24;;;;;;;39.85;19.77;;;-1.40;99.90;;;;;;5034046;28;20033;-83
2022/12/11 08:37:50;;;;;;;46.50;22.35;;;-1.40;99.90;;;;;;5035489;28;20390;-83
2022/12/11 08:40:15;;;;;;;49.25;24.27;;;-1.40;99.90;;;;;;5033300;28;20025;-83
2022/12/11 08:42:41;;;;;;;52.92;27.27;;;-1.50;99.90;;;;;;5041535;28;20037;-83
2022/12/11 08:45:07;;;;;;;89.43;43.35;;;-1.50;99.90;;;;;;5037379;28;20029;-83
2022/12/11 08:47:33;;;;;;;69.72;33.88;;;-1.50;99.90;;;;;;5037579;28;20237;-82
2022/12/11 08:49:59;;;;;;;126.20;62.30;;;-1.60;99.90;;;;;;5037781;28;20234;-83
2022/12/11 08:52:24;;;;;;;52.17;27.15;;;-1.50;99.90;;;;;;5037909;28;20486;-83
2022/12/11 08:54:50;;;;;;;50.03;24.55;;;-1.60;99.90;;;;;;5032739;28;20026;-83
2022/12/11 08:57:16;;;;;;;49.42;24.52;;;-1.70;99.90;;;;;;5032249;28;20022;-83
2022/12/11 08:59:42;;;;;;;44.92;21.58;;;-1.70;99.90;;;;;;5037388;28;20090;-83
2022/12/11 09:02:11;;;;;;;54.88;26.70;;;-1.80;99.90;;;;;;5036906;28;20025;-83
2022/12/11 09:04:37;;;;;;;55.85;26.27;;;-1.80;99.90;;;;;;5038504;28;20108;-83
2022/12/11 09:07:02;;;;;;;50.95;25.25;;;-1.70;99.90;;;;;;5033535;28;20568;-83
2022/12/11 09:09:28;;;;;;;49.95;25.00;;;-1.70;99.90;;;;;;5035652;28;20083;-83
2022/12/11 09:11:54;;;;;;;53.75;26.27;;;-1.80;99.90;;;;;;5035086;28;20021;-83
2022/12/11 09:14:20;;;;;;;60.08;25.65;;;-1.80;99.90;;;;;;5041867;28;20061;-83
2022/12/11 09:16:45;;;;;;;52.05;26.63;;;-1.90;99.90;;;;;;5035984;28;20160;-83
2022/12/11 09:19:14;;;;;;;57.67;26.23;;;-1.80;99.90;;;;;;5036167;28;20063;-81
2022/12/11 09:21:40;;;;;;;53.85;25.40;;;-1.80;99.90;;;;;;5031743;28;20494;-83
2022/12/11 09:24:07;;;;;;;50.42;25.73;;;-1.80;99.90;;;;;;5037298;28;20037;-83
2022/12/11 09:26:33;;;;;;;53.65;26.13;;;-1.80;99.90;;;;;;5033850;28;20029;-82
2022/12/11 09:29:02;;;;;;;53.97;25.38;;;-1.90;99.90;;;;;;5037126;28;20036;-82
2022/12/11 09:31:30;;;;;;;61.05;29.17;;;-1.90;99.90;;;;;;5038832;28;20025;-83
2022/12/11 09:34:01;;;;;;;56.40;28.05;;;-1.90;99.90;;;;;;5044252;28;20554;-83
2022/12/11 09:36:27;;;;;;;55.50;27.63;;;-1.80;99.90;;;;;;5036301;28;20065;-83
2022/12/11 09:38:53;;;;;;;58.45;28.30;;;-1.80;99.90;;;;;;5034704;28;20174;-83
2022/12/11 09:41:21;;;;;;;51.28;26.02;;;-1.90;99.90;;;;;;5045559;28;20490;-83
2022/12/11 09:44:11;;;;;;;50.95;25.58;;;-1.80;99.90;;;;;;5042848;28;20025;-81
2022/12/11 09:46:39;;;;;;;52.35;24.48;;;-1.80;99.90;;;;;;5034669;28;20078;-81
2022/12/11 09:49:23;;;;;;;60.45;26.42;;;-1.80;99.90;;;;;;5044095;28;20112;-82
2022/12/11 09:51:59;;;;;;;57.80;26.75;;;-1.70;99.90;;;;;;5038622;28;20021;-82
2022/12/11 09:54:26;;;;;;;59.38;27.65;;;-1.80;99.90;;;;;;5033471;28;20087;-82
2022/12/11 09:57:06;;;;;;;58.03;26.67;;;-1.80;99.90;;;;;;5037591;28;20029;-83
2022/12/11 10:00:03;;;;;;;63.10;26.20;;;-1.70;99.90;;;;;;5040187;28;20333;-82
2022/12/11 10:02:50;;;;;;;55.55;25.98;;;-1.70;99.90;;;;;;5041544;28;20536;-82
2022/12/11 10:05:25;;;;;;;49.70;24.10;;;-1.70;99.90;;;;;;5039176;28;22282;-82
2022/12/11 10:08:16;;;;;;;58.03;26.38;;;-1.70;99.90;;;;;;5038375;28;20052;-82
2022/12/11 10:11:04;;;;;;;61.53;29.58;;;-1.80;99.90;;;;;;5041723;28;20025;-82
2022/12/11 10:13:52;;;;;;;52.85;25.48;;;-1.70;99.90;;;;;;5035181;28;20051;-82
2022/12/11 10:16:37;;;;;;;56.80;25.33;;;-1.70;99.90;;;;;;5041121;28;20030;-82
2022/12/11 10:19:03;;;;;;;53.92;26.30;;;-1.70;99.90;;;;;;5037202;28;20045;-82
2022/12/11 10:21:38;;;;;;;58.78;25.88;;;-1.70;99.90;;;;;;5042051;28;20413;-82
2022/12/11 10:24:09;;;;;;;;;;;-1.70;99.90;;;;;;5038995;28;20560;-82
2022/12/11 10:26:38;;;;;;;47.83;22.50;;;-1.70;99.90;;;;;;5043594;28;20270;-82
2022/12/11 10:29:12;;;;;;;53.72;23.80;;;-1.60;99.90;;;;;;5044569;28;20509;-81
2022/12/11 10:31:50;;;;;;;48.67;23.65;;;-1.70;99.90;;;;;;5037743;28;20029;-81
2022/12/11 10:34:38;;;;;;;49.17;24.23;;;-1.70;99.90;;;;;;5042747;28;20086;-82
2022/12/11 10:37:04;;;;;;;54.22;26.10;;;-1.70;99.90;;;;;;5032654;28;20036;-82
2022/12/11 10:39:30;;;;;;;51.67;24.42;;;-1.70;99.90;;;;;;5041653;28;20029;-81
2022/12/11 10:41:56;;;;;;;48.17;23.98;;;-1.60;99.90;;;;;;5035048;28;20026;-82
2022/12/11 10:44:28;;;;;;;45.35;22.77;;;-1.60;99.90;;;;;;5039125;28;20057;-81
2022/12/11 10:47:13;;;;;;;45.38;22.23;;;-1.60;99.90;;;;;;5037043;28;20058;-81
2022/12/11 10:49:50;;;;;;;50.17;23.13;;;-1.70;99.90;;;;;;5038843;28;20029;-82
2022/12/11 10:52:22;;;;;;;56.92;22.15;;;-1.60;99.90;;;;;;5039729;28;20120;-81
2022/12/11 10:55:15;;;;;;;45.67;22.88;;;-1.60;99.90;;;;;;5041970;28;20121;-82
2022/12/11 10:57:41;;;;;;;43.05;19.23;;;-1.60;99.90;;;;;;5030447;28;20063;-82
2022/12/11 11:00:45;;;;;;;43.47;20.58;;;-1.50;99.90;;;;;;5034827;28;20053;-81
2022/12/11 11:03:24;;;;;;;42.45;21.08;;;-1.50;99.90;;;;;;5036052;28;20052;-82
2022/12/11 11:06:05;;;;;;;38.28;18.70;;;-1.50;99.90;;;;;;5042293;28;20021;-82
2022/12/11 11:08:47;;;;;;;38.53;19.13;;;-1.60;99.90;;;;;;5042668;28;20080;-81
2022/12/11 11:11:24;;;;;;;38.58;18.95;;;-1.50;99.90;;;;;;5040868;28;20022;-82
2022/12/11 11:13:50;;;;;;;49.28;21.55;;;-1.50;99.90;;;;;;5036724;28;20032;-82
2022/12/11 11:16:19;;;;;;;42.30;21.80;;;-1.40;99.90;;;;;;5042381;28;20028;-82
2022/12/11 11:18:53;;;;;;;42.15;20.77;;;-1.40;99.90;;;;;;5042737;28;20444;-82
2022/12/11 11:21:22;;;;;;;42.90;21.70;;;-1.40;99.90;;;;;;5047196;28;20382;-82
2022/12/11 11:23:48;;;;;;;44.88;23.75;;;-1.30;99.90;;;;;;5043078;28;20033;-81
2022/12/11 11:26:14;;;;;;;51.35;23.77;;;-1.30;99.90;;;;;;5036104;28;20036;-82
2022/12/11 11:28:46;;;;;;;43.22;22.42;;;-1.30;99.90;;;;;;5031131;28;20083;-81
2022/12/11 11:31:14;;;;;;;44.83;23.48;;;-1.30;99.90;;;;;;5037565;28;20022;-81
2022/12/11 11:33:56;;;;;;;46.55;21.05;;;-1.30;99.90;;;;;;5043038;28;20024;-82
2022/12/11 11:36:28;;;;;;;46.50;21.83;;;-1.30;99.90;;;;;;5038380;28;20553;-81
2022/12/11 11:39:25;;;;;;;41.45;20.77;;;-1.30;99.90;;;;;;5038055;28;20387;-81
2022/12/11 11:41:51;;;;;;;46.45;23.48;;;-1.30;99.90;;;;;;5032459;28;20041;-82
2022/12/11 11:44:30;;;;;;;46.08;22.92;;;-1.30;99.90;;;;;;5041318;28;20332;-82
2022/12/11 11:47:04;;;;;;;50.95;25.10;;;-1.30;99.90;;;;;;5029483;28;20479;-81
2022/12/11 11:49:51;;;;;;;46.08;23.10;;;-1.20;99.90;;;;;;5037287;28;20030;-81
2022/12/11 11:52:33;;;;;;;44.35;21.67;;;-1.20;99.90;;;;;;5033860;28;20244;-82
2022/12/11 11:55:38;;;;;;;42.10;20.35;;;-1.20;99.90;;;;;;5035738;28;20025;-82
2022/12/11 11:58:24;;;;;;;44.42;23.55;;;-1.20;99.90;;;;;;5033754;28;20033;-82
2022/12/11 12:00:53;;;;;;;43.22;21.75;;;-1.10;99.90;;;;;;5037373;28;20060;-82
2022/12/11 12:03:21;;;;;;;41.97;22.08;;;-1.10;99.90;;;;;;5039861;28;20041;-82
2022/12/11 12:06:11;;;;;;;41.88;20.95;;;-1.10;99.90;;;;;;5037070;28;20029;-82
2022/12/11 12:08:49;;;;;;;52.00;24.42;;;-1.10;99.90;;;;;;5043403;28;20040;-82
2022/12/11 12:12:00;;;;;;;45.10;22.00;;;-1.10;99.90;;;;;;5040156;28;20037;-82
2022/12/11 12:14:41;;;;;;;43.05;22.25;;;-1.10;99.90;;;;;;5038011;28;20124;-82
2022/12/11 12:17:34;;;;;;;49.80;23.45;;;-1.00;99.90;;;;;;5041894;28;20028;-82
2022/12/11 12:20:37;;;;;;;45.40;22.10;;;-1.10;99.90;;;;;;5038760;28;20084;-82
2022/12/11 12:23:21;;;;;;;48.45;23.95;;;-1.00;99.90;;;;;;5038588;28;20041;-82
2022/12/11 12:26:08;;;;;;;51.00;25.40;;;-1.00;99.90;;;;;;5034537;28;20037;-82
2022/12/11 12:29:09;;;;;;;51.45;23.25;;;-1.00;99.90;;;;;;5035739;28;20083;-82
2022/12/11 12:31:50;;;;;;;45.65;23.45;;;-1.00;99.90;;;;;;5031119;28;20100;-82
2022/12/11 12:34:33;;;;;;;43.13;23.30;;;-1.00;99.90;;;;;;5042507;28;20517;-82
2022/12/11 12:37:20;;;;;;;44.92;22.40;;;-1.00;99.90;;;;;;5035417;28;20964;-82
2022/12/11 12:39:46;;;;;;;55.85;25.63;;;-1.00;99.90;;;;;;5038739;28;20050;-82
2022/12/11 12:42:32;;;;;;;52.67;25.20;;;-1.00;99.90;;;;;;5041234;28;20021;-82
2022/12/11 12:45:07;;;;;;;43.55;22.65;;;-1.00;99.90;;;;;;5040305;28;20033;-82
2022/12/11 12:47:35;;;;;;;63.08;30.30;;;-1.00;99.90;;;;;;5037110;28;20128;-82
2022/12/11 12:50:02;;;;;;;66.13;29.85;;;-1.00;99.90;;;;;;5028595;28;20101;-82
2022/12/11 12:52:30;;;;;;;60.65;28.48;;;-1.00;99.90;;;;;;5037706;28;20032;-82
2022/12/11 12:55:16;;;;;;;53.10;25.60;;;-1.10;99.90;;;;;;5036694;28;20045;-82
2022/12/11 12:57:50;;;;;;;46.75;23.65;;;-1.00;99.90;;;;;;5038789;28;20394;-81